Terminal Aerodrome Forecast
Issued by NWS

Home | Current Version | Previous Version | Graphics & Text | Print | Product List | Glossary On
Versions: 1 2 3 4 5 6 7 8 9 10 11 12 13
000
FTUS43 KBIS 172136 AAA
TAFDIK
TAF AMD
KDIK 172136Z 1722/1818 29013G24KT P6SM SCT120
     FM172300 32012G23KT P6SM VCSH SCT100
     FM180200 31009KT P6SM SCT200
     FM180400 32005KT P6SM FEW200=

USA.gov is the U.S. government's official web portal to all federal, state and local government web resources and services.